Time;durP1;ratioP1;P1;durP2;ratioP2;P2;SDS_P1;SDS_P2;PMS_P1;PMS_P2;Temp;Humidity;BMP_temperature;BMP_pressure;BME280_temperature;BME280_humidity;BME280_pressure;Samples;Min_cycle;Max_cycle;Signal;HPM_P1;HPM_P2
2022/10/28 00:02:09;;;;;;;15.70;6.82;;;;;;;16.47;98.93;101542.75;4957673;28;20117;-79
2022/10/28 00:04:35;;;;;;;22.73;5.88;;;;;;;16.41;99.13;101538.25;4973590;28;20026;-84
2022/10/28 00:07:00;;;;;;;12.73;5.30;;;;;;;16.36;99.92;101549.22;4987674;28;20027;-81
2022/10/28 00:09:26;;;;;;;17.10;5.72;;;;;;;16.43;99.32;101547.53;4988604;28;21260;-83
2022/10/28 00:11:51;;;;;;;19.05;5.82;;;;;;;16.35;99.24;101552.84;4968140;28;20085;-83
2022/10/28 00:14:16;;;;;;;19.63;5.80;;;;;;;16.32;99.39;101546.13;4969292;28;20049;-77
2022/10/28 00:16:42;;;;;;;14.50;5.13;;;;;;;16.31;99.62;101552.38;4986795;28;20045;-80
2022/10/28 00:19:10;;;;;;;13.13;5.60;;;;;;;16.32;99.58;101550.56;4973485;28;20538;-80
2022/10/28 00:21:37;;;;;;;14.40;5.15;;;;;;;16.32;99.61;101548.75;4956265;28;20061;-80
2022/10/28 00:24:04;;;;;;;13.40;5.32;;;;;;;16.41;98.97;101536.44;4967475;28;20033;-82
2022/10/28 00:26:31;;;;;;;16.05;5.82;;;;;;;16.38;99.01;101542.00;4952787;28;20046;-83
2022/10/28 00:29:06;;;;;;;22.77;5.60;;;;;;;16.37;98.96;101540.38;4989820;28;20107;-79
2022/10/28 00:31:32;;;;;;;18.05;5.65;;;;;;;16.30;99.58;101539.47;4962031;28;20050;-83
2022/10/28 00:33:59;;;;;;;13.90;6.03;;;;;;;16.26;99.25;101536.38;4972339;28;20034;-82
2022/10/28 00:36:33;;;;;;;15.50;5.63;;;;;;;16.19;99.61;101534.63;4939316;28;20034;-82
2022/10/28 00:38:59;;;;;;;17.05;6.05;;;;;;;16.28;99.40;101523.13;4951564;28;20271;-82
2022/10/28 00:41:31;;;;;;;17.67;5.38;;;;;;;16.39;98.86;101532.34;4978180;28;20046;-81
2022/10/28 00:44:02;;;;;;;14.80;6.00;;;;;;;16.35;98.92;101540.56;4955480;28;20115;-83
2022/10/28 00:46:41;;;;;;;15.50;5.95;;;;;;;16.43;98.13;101531.81;4972841;28;20069;-83
2022/10/28 00:49:15;;;;;;;18.60;6.35;;;;;;;16.36;98.81;101538.75;4973377;28;20030;-84
2022/10/28 00:51:45;;;;;;;30.90;6.00;;;;;;;16.32;99.36;101540.09;4971203;28;20085;-83
2022/10/28 00:54:11;;;;;;;22.98;5.13;;;;;;;16.34;98.68;101544.16;4971702;28;20487;-83
2022/10/28 00:56:43;;;;;;;14.80;5.75;;;;;;;16.36;98.54;101543.97;4962053;28;20055;-84
2022/10/28 00:59:17;;;;;;;16.85;5.20;;;;;;;16.34;98.82;101538.13;4952387;28;20030;-81
2022/10/28 01:01:43;;;;;;;16.85;5.32;;;;;;;16.38;98.24;101538.56;4953390;28;20126;-82
2022/10/28 01:04:09;;;;;;;16.17;5.18;;;;;;;16.24;98.80;101529.69;4967023;28;20114;-81
2022/10/28 01:06:35;;;;;;;18.25;4.78;;;;;;;16.31;98.94;101530.59;4968274;28;20051;-81
2022/10/28 01:09:03;;;;;;;14.43;5.32;;;;;;;16.24;98.95;101534.94;4972611;28;20511;-81
2022/10/28 01:11:57;;;;;;;14.65;5.20;;;;;;;16.20;99.76;101541.47;4966927;28;20077;-79
2022/10/28 01:14:39;;;;;;;15.18;6.28;;;;;;;16.14;99.96;101535.16;4946547;28;20476;-78
2022/10/28 01:17:30;;;;;;;10.63;5.45;;;;;;;16.20;99.66;101541.47;4956851;28;20074;-83
2022/10/28 01:19:55;;;;;;;17.65;5.53;;;;;;;16.42;98.25;101539.84;4972290;28;20154;-78
2022/10/28 01:22:39;;;;;;;15.50;4.93;;;;;;;16.23;98.93;101549.00;4976404;28;20133;-85
2022/10/28 01:25:42;;;;;;;12.55;4.28;;;;;;;16.24;98.86;101542.78;4969604;28;20054;-80
2022/10/28 01:28:24;;;;;;;16.17;5.25;;;;;;;16.18;99.36;101533.84;4926804;28;20165;-78
2022/10/28 01:31:12;;;;;;;12.40;5.30;;;;;;;16.25;98.95;101549.63;4966793;28;20050;-79
2022/10/28 01:34:03;;;;;;;14.52;5.35;;;;;;;16.23;98.83;101534.09;4967282;28;20045;-85
2022/10/28 01:36:58;;;;;;;19.05;4.50;;;;;;;16.14;99.08;101537.75;4938561;28;20061;-79
2022/10/28 01:39:38;;;;;;;14.82;4.93;;;;;;;16.09;99.89;101535.69;4970073;28;20031;-79
2022/10/28 01:42:28;;;;;;;15.90;5.30;;;;;;;16.17;98.74;101534.00;4965061;28;20034;-84
2022/10/28 01:45:05;;;;;;;11.13;4.85;;;;;;;16.06;99.42;101528.19;4965287;28;20054;-80
2022/10/28 01:47:43;;;;;;;15.60;5.13;;;;;;;16.05;99.10;101542.25;4969160;28;20047;-80
2022/10/28 01:50:19;;;;;;;14.00;4.85;;;;;;;15.96;99.76;101525.00;4969653;28;20074;-83
2022/10/28 01:52:47;;;;;;;12.98;5.15;;;;;;;15.90;100.00;101526.50;4969465;28;20031;-80
2022/10/28 01:55:17;;;;;;;11.98;4.78;;;;;;;15.91;100.00;101524.69;4956880;28;20046;-83
2022/10/28 01:57:47;;;;;;;14.75;5.15;;;;;;;15.88;100.00;101518.00;4979473;28;20053;-81
2022/10/28 02:00:13;;;;;;;19.15;5.25;;;;;;;15.88;100.00;101511.94;4987058;28;20522;-82
2022/10/28 02:02:39;;;;;;;20.15;6.47;;;;;;;15.93;100.00;101512.25;4994519;28;20030;-83
2022/10/28 02:05:43;;;;;;;18.38;5.22;;;;;;;15.87;100.00;101503.28;4980538;28;20130;-80
2022/10/28 02:08:27;;;;;;;16.90;4.70;;;;;;;15.87;100.00;101507.72;4953641;28;20447;-84
2022/10/28 02:10:56;;;;;;;15.20;4.80;;;;;;;15.87;100.00;101502.50;4953751;28;20042;-79
2022/10/28 02:13:32;;;;;;;15.95;4.70;;;;;;;15.77;100.00;101505.34;4993222;28;20120;-80
2022/10/28 02:16:42;;;;;;;13.20;5.07;;;;;;;15.76;100.00;101501.91;4990401;28;20047;-82
2022/10/28 02:19:15;;;;;;;22.35;5.28;;;;;;;15.69;100.00;101500.94;4958968;28;20046;-82
2022/10/28 02:21:56;;;;;;;15.90;4.95;;;;;;;15.70;100.00;101486.06;4961628;28;20046;-83
2022/10/28 02:24:26;;;;;;;19.35;5.28;;;;;;;15.68;100.00;101490.66;4977958;28;20044;-79
2022/10/28 02:27:01;;;;;;;22.80;5.38;;;;;;;15.64;100.00;101489.38;4937596;28;20436;-86
2022/10/28 02:29:26;;;;;;;18.30;5.72;;;;;;;15.63;100.00;101487.72;4943442;28;20031;-83
2022/10/28 02:32:04;;;;;;;20.88;4.88;;;;;;;15.58;100.00;101490.88;4963229;28;20118;-79
2022/10/28 02:34:41;;;;;;;14.35;5.50;;;;;;;15.60;100.00;101495.94;4936248;28;20035;-82
2022/10/28 02:37:16;;;;;;;16.75;5.28;;;;;;;15.51;100.00;101497.78;4964622;28;20057;-82
2022/10/28 02:39:47;;;;;;;17.60;6.35;;;;;;;15.50;100.00;101489.13;4975074;28;20057;-82
2022/10/28 02:42:27;;;;;;;17.55;5.47;;;;;;;15.50;100.00;101488.28;4955688;28;20492;-82
2022/10/28 02:44:59;;;;;;;18.35;5.32;;;;;;;15.47;100.00;101486.03;4956345;28;20042;-78
2022/10/28 02:47:32;;;;;;;10.13;4.57;;;;;;;15.32;100.00;101497.19;4952951;28;20070;-79
2022/10/28 02:50:03;;;;;;;15.18;4.40;;;;;;;15.26;100.00;101491.84;4951599;28;20520;-80
2022/10/28 02:52:31;;;;;;;14.45;5.35;;;;;;;15.21;100.00;101492.34;4968498;28;20062;-80
2022/10/28 02:54:59;;;;;;;18.23;5.45;;;;;;;15.16;100.00;101492.88;4962560;28;20124;-79
2022/10/28 02:57:29;;;;;;;16.35;5.38;;;;;;;15.13;100.00;101495.00;4966175;28;20057;-79
2022/10/28 02:59:59;;;;;;;17.77;5.63;;;;;;;15.08;100.00;101485.06;4951071;28;20039;-78
2022/10/28 03:02:26;;;;;;;14.48;5.38;;;;;;;15.16;100.00;101484.19;4948826;28;20043;-81
2022/10/28 03:04:51;;;;;;;16.73;5.57;;;;;;;15.12;100.00;101485.53;4952908;28;20381;-80
2022/10/28 03:07:17;;;;;;;18.77;5.43;;;;;;;15.16;100.00;101476.38;4960158;28;20177;-80
2022/10/28 03:09:43;;;;;;;15.02;4.82;;;;;;;15.17;100.00;101476.19;4961925;28;20038;-80
2022/10/28 03:12:08;;;;;;;13.85;5.47;;;;;;;15.17;100.00;101473.59;4950319;28;20039;-80
2022/10/28 03:14:34;;;;;;;17.85;5.97;;;;;;;15.08;100.00;101469.38;4968560;28;20046;-80
2022/10/28 03:16:59;;;;;;;12.88;6.38;;;;;;;15.11;100.00;101469.06;4973615;28;20037;-79
2022/10/28 03:19:25;;;;;;;23.23;7.53;;;;;;;15.06;100.00;101465.31;4962817;28;20039;-81
2022/10/28 03:21:50;;;;;;;20.08;8.10;;;;;;;15.02;100.00;101459.63;4975931;28;20034;-78
2022/10/28 03:24:15;;;;;;;21.10;6.38;;;;;;;14.96;100.00;101466.31;4974102;28;20039;-83
2022/10/28 03:26:41;;;;;;;18.63;5.78;;;;;;;15.13;100.00;101461.06;4990842;28;20179;-84
2022/10/28 03:29:07;;;;;;;18.30;5.85;;;;;;;15.07;100.00;101459.09;4972939;28;20038;-81
2022/10/28 03:31:32;;;;;;;21.65;5.78;;;;;;;15.01;100.00;101463.19;4968776;28;20038;-83
2022/10/28 03:33:58;;;;;;;21.80;6.25;;;;;;;14.99;100.00;101455.56;4973661;28;20034;-82
2022/10/28 03:36:23;;;;;;;20.90;6.47;;;;;;;14.94;100.00;101452.63;4945353;28;20074;-80
2022/10/28 03:38:49;;;;;;;19.17;6.10;;;;;;;14.92;100.00;101459.81;4966117;28;20033;-80
2022/10/28 03:41:14;;;;;;;15.05;5.30;;;;;;;14.85;100.00;101456.25;4937734;28;20039;-78
2022/10/28 03:43:40;;;;;;;10.30;5.45;;;;;;;14.83;100.00;101460.81;4959903;28;20050;-81
2022/10/28 03:46:05;;;;;;;14.50;5.97;;;;;;;14.78;100.00;101452.66;4947035;28;20042;-78
2022/10/28 03:48:31;;;;;;;25.63;5.55;;;;;;;14.82;100.00;101455.75;4962075;28;20042;-77
2022/10/28 03:50:56;;;;;;;17.23;5.47;;;;;;;14.73;100.00;101454.97;4957685;28;20043;-78
2022/10/28 03:53:21;;;;;;;12.32;5.70;;;;;;;14.68;100.00;101454.66;4955816;28;20757;-78
2022/10/28 03:55:55;;;;;;;26.00;7.30;;;;;;;14.66;100.00;101459.25;4977388;28;20034;-78
2022/10/28 03:58:20;;;;;;;16.77;5.35;;;;;;;14.61;100.00;101454.50;4967762;28;20113;-78
2022/10/28 04:00:48;;;;;;;12.60;5.28;;;;;;;14.57;100.00;101455.81;4966323;28;20046;-78
2022/10/28 04:03:13;;;;;;;14.68;5.40;;;;;;;14.54;100.00;101450.91;4947145;28;20066;-78
2022/10/28 04:05:38;;;;;;;19.05;5.55;;;;;;;14.52;100.00;101453.69;4957120;28;20092;-78
2022/10/28 04:08:04;;;;;;;16.77;5.93;;;;;;;14.50;100.00;101460.84;4971426;28;20039;-78
2022/10/28 04:10:29;;;;;;;18.20;6.20;;;;;;;14.45;100.00;101459.72;4964673;28;20046;-78
2022/10/28 04:13:02;;;;;;;12.52;5.10;;;;;;;14.37;100.00;101471.81;4973097;28;20034;-78
2022/10/28 04:15:28;;;;;;;;;;;;;;;14.30;100.00;101470.03;4972317;28;20074;-78
2022/10/28 04:17:53;;;;;;;24.20;5.53;;;;;;;14.26;100.00;101477.38;4991871;28;19972;-78
2022/10/28 04:20:19;;;;;;;16.00;5.25;;;;;;;14.25;100.00;101470.50;4986892;28;20108;-78
2022/10/28 04:22:44;;;;;;;14.90;5.45;;;;;;;14.24;100.00;101466.28;4971158;28;20030;-78
2022/10/28 04:25:10;;;;;;;17.10;5.57;;;;;;;14.19;100.00;101466.75;4986821;28;20049;-78
2022/10/28 04:27:35;;;;;;;16.85;6.63;;;;;;;14.18;100.00;101469.53;4988777;28;20034;-78
2022/10/28 04:30:01;;;;;;;10.45;4.82;;;;;;;14.13;100.00;101474.44;4970911;28;20046;-78
2022/10/28 04:32:27;;;;;;;25.75;5.45;;;;;;;14.10;100.00;101482.56;4963607;28;20031;-78
2022/10/28 04:34:52;;;;;;;16.00;4.88;;;;;;;14.08;100.00;101481.94;4959948;28;20073;-78
2022/10/28 04:37:18;;;;;;;14.75;5.35;;;;;;;14.03;100.00;101482.41;4935440;28;20043;-78
2022/10/28 04:39:43;;;;;;;17.90;5.45;;;;;;;14.03;100.00;101477.19;4938773;28;20038;-78
2022/10/28 04:42:08;;;;;;;11.18;5.70;;;;;;;14.07;100.00;101482.88;4973553;28;20030;-78
2022/10/28 04:44:34;;;;;;;16.75;5.47;;;;;;;14.17;100.00;101468.72;4968186;28;20042;-78
2022/10/28 04:46:59;;;;;;;21.45;6.00;;;;;;;14.13;100.00;101466.63;4953327;28;20046;-78
2022/10/28 04:49:25;;;;;;;17.63;5.43;;;;;;;14.11;100.00;101476.38;4953211;28;20097;-78
2022/10/28 04:51:50;;;;;;;18.58;6.57;;;;;;;14.12;100.00;101464.97;4972881;28;20041;-78
2022/10/28 04:54:16;;;;;;;14.93;5.25;;;;;;;14.09;100.00;101479.16;4967752;28;20105;-78
2022/10/28 04:56:41;;;;;;;19.83;5.53;;;;;;;14.08;100.00;101484.53;4957308;28;20061;-78
2022/10/28 04:59:06;;;;;;;13.70;5.15;;;;;;;14.06;100.00;101483.88;4970058;28;20034;-78
2022/10/28 05:01:32;;;;;;;21.98;6.80;;;;;;;14.03;100.00;101474.56;4968704;28;20034;-78
2022/10/28 05:03:57;;;;;;;16.60;6.45;;;;;;;14.03;100.00;101482.41;4949119;28;20030;-77
2022/10/28 05:06:23;;;;;;;18.45;5.20;;;;;;;13.98;100.00;101482.91;4985041;28;20800;-78
2022/10/28 05:08:48;;;;;;;17.10;6.93;;;;;;;13.95;100.00;101490.22;4984235;28;20625;-78
2022/10/28 05:11:14;;;;;;;9.35;5.07;;;;;;;13.91;100.00;101484.50;4989154;28;20043;-78
2022/10/28 05:13:39;;;;;;;13.82;5.13;;;;;;;13.90;100.00;101490.72;4954431;28;20049;-77
2022/10/28 05:16:05;;;;;;;17.70;6.43;;;;;;;13.89;100.00;101478.66;4978457;28;20041;-78
2022/10/28 05:18:30;;;;;;;15.45;6.60;;;;;;;13.87;100.00;101488.41;4968302;28;20101;-77
2022/10/28 05:20:56;;;;;;;20.42;6.88;;;;;;;13.82;100.00;101480.25;4965500;28;20042;-78
2022/10/28 05:23:22;;;;;;;23.33;7.85;;;;;;;13.82;100.00;101483.69;4979100;28;20026;-79
2022/10/28 05:25:48;;;;;;;26.27;6.95;;;;;;;13.89;100.00;101483.84;4970255;28;20042;-78
2022/10/28 05:28:14;;;;;;;15.38;6.40;;;;;;;14.05;100.00;101480.44;4966465;28;20065;-80
2022/10/28 05:30:39;;;;;;;20.42;6.25;;;;;;;14.11;100.00;101478.97;4972675;28;20039;-79
2022/10/28 05:33:05;;;;;;;17.38;6.13;;;;;;;14.24;100.00;101466.28;4953014;28;20035;-80
2022/10/28 05:35:30;;;;;;;15.32;6.70;;;;;;;14.22;100.00;101470.81;4949498;28;20047;-78
2022/10/28 05:37:56;;;;;;;19.15;5.88;;;;;;;14.29;100.00;101481.44;4933828;28;20037;-85
2022/10/28 05:40:22;;;;;;;26.83;6.40;;;;;;;14.27;100.00;101476.38;4967286;28;20569;-80
2022/10/28 05:42:47;;;;;;;15.80;5.57;;;;;;;14.24;100.00;101473.28;4951604;28;20015;-80
2022/10/28 05:45:13;;;;;;;16.27;5.85;;;;;;;14.29;100.00;101471.81;4950110;28;20082;-78
2022/10/28 05:47:43;;;;;;;15.80;5.88;;;;;;;14.21;100.00;101471.81;4953200;28;20113;-77
2022/10/28 05:50:09;;;;;;;16.80;6.10;;;;;;;14.13;100.00;101474.44;4984039;28;20046;-78
2022/10/28 05:52:34;;;;;;;29.25;9.30;;;;;;;14.17;100.00;101480.94;4951758;28;20108;-80
2022/10/28 05:55:00;;;;;;;25.77;7.80;;;;;;;14.15;100.00;101478.50;4984350;28;20492;-78
2022/10/28 05:57:25;;;;;;;21.63;8.13;;;;;;;14.12;100.00;101484.03;4985518;28;20039;-78
2022/10/28 05:59:51;;;;;;;26.77;8.98;;;;;;;14.14;100.00;101484.69;4983349;28;20962;-78
2022/10/28 06:02:16;;;;;;;19.98;8.02;;;;;;;14.20;100.00;101476.22;4970557;28;20491;-79
2022/10/28 06:04:42;;;;;;;22.50;7.72;;;;;;;14.27;100.00;101476.38;4950162;28;20038;-77
2022/10/28 06:07:07;;;;;;;24.13;6.70;;;;;;;14.24;100.00;101481.09;4939573;28;20117;-78
2022/10/28 06:09:33;;;;;;;23.17;7.03;;;;;;;14.27;100.00;101478.19;4952741;28;20106;-79
2022/10/28 06:11:58;;;;;;;17.83;6.20;;;;;;;14.35;100.00;101479.00;4933200;28;20483;-79
2022/10/28 06:14:24;;;;;;;19.10;6.47;;;;;;;14.28;100.00;101487.63;4932123;28;20046;-78
2022/10/28 06:16:49;;;;;;;22.42;6.53;;;;;;;14.23;100.00;101485.50;4963550;28;20047;-78
2022/10/28 06:19:15;;;;;;;27.23;7.72;;;;;;;14.31;100.00;101479.47;4981072;28;20053;-78
2022/10/28 06:21:40;;;;;;;20.60;7.15;;;;;;;14.25;100.00;101488.75;4964931;28;20038;-80
2022/10/28 06:24:07;;;;;;;18.42;5.90;;;;;;;14.30;100.00;101488.28;4963856;28;20037;-82
2022/10/28 06:26:33;;;;;;;28.48;6.10;;;;;;;14.39;100.00;101490.72;4951179;28;21761;-84
2022/10/28 06:28:58;;;;;;;19.38;6.30;;;;;;;14.37;100.00;101494.47;4966004;28;20038;-82
2022/10/28 06:31:25;;;;;;;27.35;7.13;;;;;;;14.37;100.00;101489.25;4977722;28;20053;-82
2022/10/28 06:33:50;;;;;;;19.52;5.90;;;;;;;14.53;100.00;101489.25;4957201;28;20026;-85
2022/10/28 06:36:15;;;;;;;21.20;5.82;;;;;;;14.52;100.00;101487.63;4986418;28;20034;-79
2022/10/28 06:38:41;;;;;;;21.35;6.63;;;;;;;14.51;100.00;101490.38;4983460;28;20034;-80
2022/10/28 06:41:06;;;;;;;25.00;6.70;;;;;;;14.42;100.00;101497.41;4971417;28;20085;-80
2022/10/28 06:43:32;;;;;;;19.33;5.63;;;;;;;14.36;100.00;101492.84;4973483;28;20033;-80
2022/10/28 06:46:02;;;;;;;19.05;6.72;;;;;;;14.35;100.00;101502.47;4972119;28;20519;-79
2022/10/28 06:48:28;;;;;;;23.33;8.20;;;;;;;14.41;100.00;101487.97;4985633;28;20061;-82
2022/10/28 06:50:55;;;;;;;29.48;8.68;;;;;;;14.63;100.00;101496.09;4974042;28;20483;-80
2022/10/28 06:53:20;;;;;;;26.02;7.85;;;;;;;14.65;100.00;101496.75;4969655;28;20034;-83
2022/10/28 06:55:53;;;;;;;20.50;7.03;;;;;;;14.83;100.00;101500.00;4953914;28;20040;-82
2022/10/28 06:58:18;;;;;;;19.02;7.35;;;;;;;14.80;100.00;101492.47;4986354;28;20337;-80
2022/10/28 07:00:44;;;;;;;24.25;7.43;;;;;;;14.82;100.00;101485.28;4967305;28;20432;-85
2022/10/28 07:03:09;;;;;;;19.30;7.03;;;;;;;14.96;100.00;101484.59;4968669;28;20026;-81
2022/10/28 07:05:35;;;;;;;19.35;6.97;;;;;;;14.89;100.00;101490.66;4968360;28;20084;-81
2022/10/28 07:08:00;;;;;;;22.45;8.25;;;;;;;14.88;100.00;101494.25;4963763;28;20053;-81
2022/10/28 07:10:26;;;;;;;19.15;7.28;;;;;;;14.94;100.00;101497.03;4972216;28;20030;-82
2022/10/28 07:12:52;;;;;;;18.50;6.65;;;;;;;15.04;100.00;101498.63;4971864;28;21577;-80
2022/10/28 07:15:17;;;;;;;15.95;6.28;;;;;;;15.25;100.00;101498.06;4970663;28;20038;-80
2022/10/28 07:17:43;;;;;;;18.85;7.60;;;;;;;15.33;100.00;101498.00;4990477;28;20419;-81
2022/10/28 07:20:09;;;;;;;17.20;6.30;;;;;;;15.30;100.00;101499.19;4985245;28;20757;-84
2022/10/28 07:22:34;;;;;;;19.88;7.45;;;;;;;15.42;100.00;101507.44;4987575;28;20093;-84
2022/10/28 07:25:00;;;;;;;23.83;5.53;;;;;;;15.46;100.00;101508.72;4983966;28;20038;-84
2022/10/28 07:27:25;;;;;;;26.52;5.72;;;;;;;15.52;100.00;101515.06;4987648;28;20495;-80
2022/10/28 07:29:51;;;;;;;11.82;5.50;;;;;;;15.63;100.00;101514.69;4970007;28;20516;-80
2022/10/28 07:32:17;;;;;;;19.98;6.13;;;;;;;15.65;100.00;101520.56;4970510;28;20054;-81
2022/10/28 07:34:43;;;;;;;21.63;5.57;;;;;;;15.72;100.00;101497.97;4973243;28;20034;-83
2022/10/28 07:37:11;;;;;;;26.05;5.60;;;;;;;15.79;99.61;101505.16;4972280;28;20056;-85
2022/10/28 07:39:37;;;;;;;12.15;6.32;;;;;;;15.80;100.00;101517.25;4987360;28;20050;-81
2022/10/28 07:42:03;;;;;;;20.40;5.82;;;;;;;15.81;99.45;101514.47;4969685;28;20519;-85
2022/10/28 07:44:28;;;;;;;27.65;5.43;;;;;;;15.93;98.93;101522.72;4957751;28;20034;-80
2022/10/28 07:46:54;;;;;;;24.02;5.68;;;;;;;16.02;98.33;101523.47;4986466;28;20034;-84
2022/10/28 07:49:19;;;;;;;23.58;5.30;;;;;;;16.15;97.37;101521.91;4954823;28;20088;-84
2022/10/28 07:51:44;;;;;;;26.23;5.93;;;;;;;16.24;97.00;101535.75;4977458;28;20046;-80
2022/10/28 07:54:10;;;;;;;16.10;5.32;;;;;;;16.21;97.14;101540.50;4971780;28;20041;-83
2022/10/28 07:56:35;;;;;;;20.48;5.55;;;;;;;16.21;97.05;101537.91;4979479;28;20506;-79
2022/10/28 07:59:01;;;;;;;20.45;5.50;;;;;;;16.24;96.86;101533.13;4952293;28;20045;-83
2022/10/28 08:01:26;;;;;;;24.30;5.43;;;;;;;16.28;96.91;101529.16;4965487;28;20058;-85
2022/10/28 08:03:52;;;;;;;21.48;4.90;;;;;;;16.47;96.02;101527.06;4957409;28;20037;-82
2022/10/28 08:06:19;;;;;;;17.08;5.30;;;;;;;16.49;95.98;101512.78;4965708;28;20078;-78
2022/10/28 08:08:47;;;;;;;25.60;6.63;;;;;;;16.50;96.03;101522.28;4967725;28;20030;-79
2022/10/28 08:11:17;;;;;;;17.60;5.05;;;;;;;16.58;95.04;101512.72;4968994;28;20046;-80
2022/10/28 08:13:43;;;;;;;30.67;5.95;;;;;;;16.51;94.91;101510.00;4976670;28;20042;-80
2022/10/28 08:16:08;;;;;;;21.83;5.53;;;;;;;16.40;95.55;101505.19;4980948;28;20053;-84
2022/10/28 08:18:35;;;;;;;19.98;6.38;;;;;;;16.50;95.27;101506.56;4977296;28;20467;-82
2022/10/28 08:21:02;;;;;;;22.27;6.15;;;;;;;16.81;93.51;101518.69;4975269;28;20038;-83
2022/10/28 08:23:28;;;;;;;17.95;5.90;;;;;;;17.13;92.52;101519.38;4974691;28;20049;-83
2022/10/28 08:25:54;;;;;;;12.82;4.55;;;;;;;17.56;90.82;101516.06;4981245;28;20049;-81
2022/10/28 08:28:20;;;;;;;21.45;5.63;;;;;;;17.91;86.42;101509.16;4973568;28;20026;-86
2022/10/28 08:30:46;;;;;;;30.95;6.65;;;;;;;18.26;84.89;101504.03;4973195;28;20075;-83
2022/10/28 08:33:13;;;;;;;19.05;5.70;;;;;;;18.47;83.70;101509.25;4958071;28;20030;-87
2022/10/28 08:35:38;;;;;;;14.27;4.78;;;;;;;18.56;82.39;101509.13;4986770;28;20117;-81
2022/10/28 08:38:04;;;;;;;15.52;4.30;;;;;;;18.71;81.81;101511.63;5008057;28;20142;-81
2022/10/28 08:40:44;;;;;;;16.25;4.35;;;;;;;18.88;81.27;101507.72;4972268;28;20038;-81
2022/10/28 08:43:35;;;;;;;13.45;4.72;;;;;;;19.02;80.19;101513.84;4980917;28;20034;-82
2022/10/28 08:46:09;;;;;;;16.40;4.95;;;;;;;18.99;80.77;101516.88;4994061;28;20043;-83
2022/10/28 08:48:35;;;;;;;19.90;4.75;;;;;;;19.04;80.20;101502.16;4980270;28;20034;-82
2022/10/28 08:51:16;;;;;;;22.08;4.57;;;;;;;19.16;79.80;101509.50;4987661;28;20049;-84
2022/10/28 08:53:52;;;;;;;23.67;4.75;;;;;;;19.11;79.20;101496.91;4993193;28;20065;-81
2022/10/28 08:56:43;;;;;;;21.60;6.32;;;;;;;19.05;79.30;101503.75;4982924;28;20035;-84
2022/10/28 08:59:14;;;;;;;21.98;4.50;;;;;;;18.91;80.21;101498.63;4998190;28;20483;-83
2022/10/28 09:01:47;;;;;;;15.50;4.10;;;;;;;18.89;80.14;101500.66;4989923;28;20044;-85
2022/10/28 09:04:23;;;;;;;20.00;5.20;;;;;;;18.92;80.40;101501.06;4990737;28;20026;-83
2022/10/28 09:06:48;;;;;;;19.30;4.40;;;;;;;18.84;80.49;101483.66;4990892;28;20065;-83
2022/10/28 09:09:19;;;;;;;15.10;4.40;;;;;;;18.75;81.58;101489.22;4992161;28;20172;-82
2022/10/28 09:11:56;;;;;;;24.33;5.28;;;;;;;18.76;81.10;101496.09;4988064;28;20057;-85
2022/10/28 09:14:51;;;;;;;19.45;6.65;;;;;;;18.81;81.15;101499.00;5002389;28;20033;-84
2022/10/28 09:17:19;;;;;;;19.52;4.55;;;;;;;18.75;82.03;101487.41;4991070;28;20121;-81
2022/10/28 09:19:58;;;;;;;18.75;4.88;;;;;;;18.67;82.11;101487.56;5006074;28;20528;-84
2022/10/28 09:22:32;;;;;;;22.83;4.72;;;;;;;18.67;81.51;101493.63;4985728;28;20064;-83
2022/10/28 09:25:08;;;;;;;16.02;5.57;;;;;;;18.59;82.38;101495.59;5003880;28;20058;-84
2022/10/28 09:28:29;;;;;;;20.83;5.40;;;;;;;18.60;82.63;101494.59;4978566;28;20042;-83
2022/10/28 09:31:18;;;;;;;23.75;4.75;;;;;;;18.72;81.47;101493.03;4895662;29;20578;-83
2022/10/28 09:34:02;;;;;;;19.77;4.97;;;;;;;18.70;82.54;101489.00;4956292;28;20053;-81
2022/10/28 09:36:35;;;;;;;13.70;3.70;;;;;;;18.88;81.80;101491.97;4970032;28;20070;-85
2022/10/28 09:39:04;;;;;;;12.63;4.05;;;;;;;18.94;81.87;101493.00;4982664;28;20056;-80
2022/10/28 09:41:40;;;;;;;22.42;6.28;;;;;;;19.03;80.70;101497.91;4987191;28;20520;-83
2022/10/28 09:44:24;;;;;;;12.15;4.43;;;;;;;19.09;81.20;101495.50;4984561;28;20049;-81
2022/10/28 09:46:54;;;;;;;26.48;4.68;;;;;;;19.15;79.39;101485.00;4979959;28;20042;-82
2022/10/28 09:49:34;;;;;;;14.02;4.53;;;;;;;19.21;79.20;101486.88;4966137;28;20439;-85
2022/10/28 09:52:12;;;;;;;20.05;4.80;;;;;;;19.20;78.83;101498.38;4990093;28;20051;-84
2022/10/28 09:54:43;;;;;;;15.45;4.18;;;;;;;19.26;79.25;101483.63;4972151;28;20046;-82
2022/10/28 09:57:08;;;;;;;20.63;4.10;;;;;;;19.24;79.33;101494.34;4989031;28;20045;-84
2022/10/28 09:59:34;;;;;;;16.45;4.75;;;;;;;19.16;79.97;101505.03;4987968;28;20427;-81
2022/10/28 10:02:01;;;;;;;18.40;4.93;;;;;;;19.31;79.99;101494.38;4985252;28;20035;-82
2022/10/28 10:04:30;;;;;;;15.07;5.20;;;;;;;19.51;79.09;101496.25;4979339;28;20026;-83
2022/10/28 10:07:04;;;;;;;17.23;4.18;;;;;;;19.40;79.71;101497.63;5011189;28;20048;-82
2022/10/28 10:09:32;;;;;;;15.25;4.30;;;;;;;19.42;80.28;101500.84;5009052;28;20041;-82
2022/10/28 10:12:12;;;;;;;17.95;5.38;;;;;;;19.45;80.94;101497.84;4989413;28;20038;-84
2022/10/28 10:14:39;;;;;;;22.00;4.65;;;;;;;19.55;79.35;101493.03;5008616;28;20048;-82
2022/10/28 10:17:13;;;;;;;13.27;4.40;;;;;;;19.49;79.26;101503.53;4987910;28;20106;-80
2022/10/28 10:19:59;;;;;;;21.80;4.95;;;;;;;19.60;79.53;101509.00;4996881;28;20042;-84
2022/10/28 10:22:30;;;;;;;18.52;4.93;;;;;;;19.61;79.63;101505.38;4974101;28;20042;-83
2022/10/28 10:24:56;;;;;;;15.88;4.10;;;;;;;19.62;80.78;101501.72;4993005;28;20117;-84
2022/10/28 10:27:21;;;;;;;17.58;4.78;;;;;;;19.86;79.80;101490.91;4990042;28;20042;-82
2022/10/28 10:29:50;;;;;;;21.40;4.95;;;;;;;19.83;78.53;101492.91;5010440;28;20038;-80
2022/10/28 10:32:23;;;;;;;26.85;6.55;;;;;;;19.82;79.37;101487.84;4984826;28;20074;-84
2022/10/28 10:35:00;;;;;;;17.30;4.60;;;;;;;19.78;79.73;101491.91;5003653;28;20052;-83
2022/10/28 10:37:27;;;;;;;16.55;4.95;;;;;;;19.82;79.32;101488.66;4980107;28;20037;-83
2022/10/28 10:40:05;;;;;;;15.77;4.85;;;;;;;19.83;79.35;101482.41;4989883;28;20122;-83
2022/10/28 10:42:30;;;;;;;20.40;5.65;;;;;;;19.83;79.72;101486.81;4994587;28;20046;-82
2022/10/28 10:45:29;;;;;;;29.08;5.40;;;;;;;19.96;79.96;101494.72;4992027;28;20490;-82
2022/10/28 10:48:06;;;;;;;20.50;4.80;;;;;;;20.11;80.24;101488.47;4987998;28;20061;-81
2022/10/28 10:50:32;;;;;;;19.05;5.10;;;;;;;20.19;78.74;101485.63;4993930;28;22169;-83
2022/10/28 10:53:00;;;;;;;14.70;4.78;;;;;;;20.15;80.66;101479.94;4974229;28;20064;-82
2022/10/28 10:55:33;;;;;;;18.38;5.60;;;;;;;20.23;80.85;101486.84;4992288;28;20224;-81
2022/10/28 10:58:00;;;;;;;26.15;5.20;;;;;;;20.42;80.04;101490.50;5009267;28;20034;-83
2022/10/28 11:00:34;;;;;;;19.38;4.72;;;;;;;20.47;79.48;101482.75;4989176;28;20038;-83
2022/10/28 11:03:00;;;;;;;20.30;4.50;;;;;;;20.58;78.10;101484.75;4993181;28;20072;-81
2022/10/28 11:05:27;;;;;;;26.42;5.03;;;;;;;20.74;76.39;101488.03;5012761;28;20670;-85
2022/10/28 11:07:52;;;;;;;16.75;4.68;;;;;;;20.74;77.19;101480.94;5017641;28;20049;-82
2022/10/28 11:10:22;;;;;;;13.82;3.88;;;;;;;20.77;75.89;101471.78;5010160;28;20789;-82
2022/10/28 11:12:56;;;;;;;24.15;4.47;;;;;;;20.75;78.04;101466.72;4988519;28;20037;-80
2022/10/28 11:15:29;;;;;;;19.08;3.75;;;;;;;21.03;74.98;101464.81;5011079;28;20117;-81
2022/10/28 11:18:02;;;;;;;18.45;4.65;;;;;;;21.16;74.26;101457.66;4989177;28;20038;-80
2022/10/28 11:20:45;;;;;;;17.25;4.47;;;;;;;21.16;74.75;101452.38;4976211;28;20061;-84
2022/10/28 11:23:26;;;;;;;20.75;5.22;;;;;;;21.17;75.09;101450.53;5007701;28;20034;-81
2022/10/28 11:25:57;;;;;;;15.98;4.32;;;;;;;21.09;74.99;101445.50;4980974;28;20038;-81
2022/10/28 11:28:25;;;;;;;15.57;3.40;;;;;;;21.10;75.20;101442.69;5004614;28;20089;-82